Time;durP1;ratioP1;P1;durP2;ratioP2;P2;SDS_P1;SDS_P2;PMS_P1;PMS_P2;Temp;Humidity;BMP_temperature;BMP_pressure;BME280_temperature;BME280_humidity;BME280_pressure;Samples;Min_cycle;Max_cycle;Signal;HPM_P1;HPM_P2
2023/01/31 00:02:04;;;;;;;;;48.50;39.00;;;;;5.35;100.00;102424.53;5059075;28;45537;-81
2023/01/31 00:04:30;;;;;;;;;42.25;33.75;;;;;5.43;100.00;102435.66;5042086;28;45796;-80
2023/01/31 00:06:55;;;;;;;;;46.75;36.50;;;;;5.45;100.00;102447.25;5040550;28;44782;-80
2023/01/31 00:09:21;;;;;;;;;47.50;39.75;;;;;5.42;100.00;102433.91;5060656;28;45584;-80
2023/01/31 00:11:47;;;;;;;;;44.75;37.00;;;;;5.36;100.00;102439.88;5067409;28;45430;-80
2023/01/31 00:14:19;;;;;;;;;48.25;37.50;;;;;5.35;100.00;102440.03;5068946;28;45354;-79
2023/01/31 00:16:44;;;;;;;;;56.50;44.00;;;;;5.35;100.00;102430.00;5064771;28;45849;-79
2023/01/31 00:19:10;;;;;;;;;39.50;35.25;;;;;5.11;100.00;102395.75;5065056;28;44698;-79
2023/01/31 00:21:35;;;;;;;;;46.00;37.00;;;;;5.28;100.00;102429.66;5071417;28;45248;-81
2023/01/31 00:24:04;;;;;;;;;50.50;37.50;;;;;5.22;100.00;102424.72;5072676;28;45443;-80
2023/01/31 00:26:32;;;;;;;;;51.50;40.00;;;;;5.25;100.00;102429.91;5066136;28;45545;-80
2023/01/31 00:29:00;;;;;;;;;56.00;44.25;;;;;5.16;100.00;102414.38;5063142;28;45422;-80
2023/01/31 00:31:27;;;;;;;;;51.50;38.00;;;;;5.24;100.00;102438.19;5072113;28;45570;-81
2023/01/31 00:33:55;;;;;;;;;46.50;38.00;;;;;5.09;100.00;102402.31;5067136;28;45494;-81
2023/01/31 00:36:28;;;;;;;;;44.50;37.25;;;;;5.18;100.00;102416.97;5065720;28;45505;-80
2023/01/31 00:38:56;;;;;;;;;54.25;42.50;;;;;4.99;100.00;102393.25;5059668;28;45391;-81
2023/01/31 00:41:23;;;;;;;;;51.00;40.75;;;;;5.12;100.00;102418.38;5045931;28;48324;-79
2023/01/31 00:43:49;;;;;;;;;47.25;38.50;;;;;5.19;100.00;102430.44;5048070;28;45388;-80
2023/01/31 00:46:15;;;;;;;;;51.50;40.00;;;;;5.18;100.00;102439.63;5074017;28;45758;-80
2023/01/31 00:48:42;;;;;;;;;52.00;40.00;;;;;5.01;100.00;102411.13;5068318;28;45380;-81
2023/01/31 00:51:07;;;;;;;;;47.75;38.00;;;;;5.15;100.00;102428.13;5066534;28;45387;-81
2023/01/31 00:53:33;;;;;;;;;49.50;40.00;;;;;4.95;100.00;102403.50;5045008;28;45412;-81
2023/01/31 00:56:09;;;;;;;;;49.50;40.75;;;;;5.06;100.00;102422.50;5047984;28;45383;-79
2023/01/31 00:58:35;;;;;;;;;48.25;40.00;;;;;4.86;100.00;102391.53;5071203;28;45570;-80
2023/01/31 01:01:16;;;;;;;;;47.25;39.50;;;;;5.03;100.00;102420.03;5063256;28;46391;-79
2023/01/31 01:03:43;;;;;;;;;44.00;37.00;;;;;5.01;100.00;102404.84;5046776;28;45531;-80
2023/01/31 01:06:10;;;;;;;;;40.25;34.75;;;;;5.02;100.00;102404.69;5051349;28;45449;-79
2023/01/31 01:08:38;;;;;;;;;43.00;36.50;;;;;4.99;100.00;102401.41;5057772;28;45631;-80
2023/01/31 01:11:09;;;;;;;;;46.75;34.75;;;;;4.94;100.00;102388.19;5055326;28;45581;-80
2023/01/31 01:13:36;;;;;;;;;50.50;36.75;;;;;4.88;100.00;102384.13;5052154;28;45875;-78
2023/01/31 01:16:14;;;;;;;;;41.00;33.25;;;;;4.97;100.00;102398.81;5053090;28;45928;-80
2023/01/31 01:18:40;;;;;;;;;32.50;29.00;;;;;4.96;100.00;102402.50;5051767;28;46763;-79
2023/01/31 01:21:12;;;;;;;;;34.00;30.00;;;;;4.88;100.00;102399.56;5052917;28;47934;-79
2023/01/31 01:23:39;;;;;;;;;36.75;31.00;;;;;4.97;100.00;102416.97;5053212;28;45750;-80
2023/01/31 01:26:05;;;;;;;;;39.75;32.00;;;;;4.98;100.00;102411.38;5051180;28;45922;-79
2023/01/31 01:28:34;;;;;;;;;40.25;33.50;;;;;4.93;100.00;102406.34;5050642;28;45784;-79
2023/01/31 01:31:08;;;;;;;;;34.00;28.50;;;;;4.89;100.00;102393.16;5051085;28;45743;-80
2023/01/31 01:33:34;;;;;;;;;42.00;35.50;;;;;5.01;100.00;102415.72;5032156;28;45356;-80
2023/01/31 01:36:05;;;;;;;;;38.50;35.75;;;;;4.80;100.00;102383.06;5062201;28;45525;-80
2023/01/31 01:38:34;;;;;;;;;44.25;34.75;;;;;4.77;100.00;102378.75;5051358;28;45794;-79
2023/01/31 01:41:00;;;;;;;;;36.25;30.75;;;;;4.82;100.00;102394.66;5024563;28;47651;-78
2023/01/31 01:43:48;;;;;;;;;40.50;34.00;;;;;4.90;100.00;102413.91;5032347;28;45915;-79
2023/01/31 01:46:19;;;;;;;;;43.75;36.75;;;;;4.72;100.00;102384.56;5058302;28;45837;-79
2023/01/31 01:48:48;;;;;;;;;37.50;33.50;;;;;4.82;100.00;102391.94;5054302;28;45627;-80
2023/01/31 01:51:18;;;;;;;;;38.25;33.00;;;;;4.85;100.00;102399.84;5049872;28;46640;-80
2023/01/31 01:53:47;;;;;;;;;38.75;30.50;;;;;4.49;100.00;102340.34;5063666;28;45430;-79
2023/01/31 01:56:18;;;;;;;;;29.75;28.00;;;;;4.80;100.00;102400.22;5037802;28;45800;-79
2023/01/31 01:58:51;;;;;;;;;32.25;29.00;;;;;4.62;100.00;102372.75;5054548;28;45598;-79
2023/01/31 02:01:18;;;;;;;;;42.25;34.00;;;;;4.78;100.00;102405.78;5032506;28;47098;-79
2023/01/31 02:03:46;;;;;;;;;36.50;31.00;;;;;4.77;100.00;102404.09;5050407;28;45700;-80
2023/01/31 02:06:12;;;;;;;;;35.50;29.50;;;;;4.75;100.00;102402.47;5050964;28;45497;-80
2023/01/31 02:08:40;;;;;;;;;40.75;34.25;;;;;4.50;100.00;102357.50;5051252;28;45985;-80
2023/01/31 02:11:12;;;;;;;;;38.50;32.25;;;;;4.68;100.00;102401.28;5051928;28;46474;-80
2023/01/31 02:13:40;;;;;;;;;37.50;33.00;;;;;4.63;100.00;102390.78;5063298;28;45754;-78
2023/01/31 02:16:06;;;;;;;;;40.50;30.00;;;;;4.57;100.00;102383.16;5038143;28;45444;-79
2023/01/31 02:18:31;;;;;;;;;36.50;32.25;;;;;4.45;100.00;102362.47;5054458;28;45420;-79
2023/01/31 02:21:29;;;;;;;;;38.00;32.75;;;;;4.55;100.00;102393.28;5053523;28;46540;-80
2023/01/31 02:24:00;;;;;;;;;34.00;27.25;;;;;4.53;100.00;102400.69;5055137;28;45534;-80
2023/01/31 02:27:01;;;;;;;;;32.00;26.25;;;;;4.49;100.00;102400.09;5049908;28;45739;-78
2023/01/31 02:29:58;;;;;;;;;33.75;25.75;;;;;4.37;100.00;102374.81;5045510;28;45715;-80
2023/01/31 02:32:41;;;;;;;;;31.00;28.75;;;;;4.50;100.00;102400.97;5035978;28;48276;-78
2023/01/31 02:35:21;;;;;;;;;40.50;31.00;;;;;4.41;100.00;102389.84;5043805;28;45735;-78
2023/01/31 02:38:23;;;;;;;;;27.25;26.75;;;;;4.49;100.00;102399.22;5054282;28;45396;-78
2023/01/31 02:41:04;;;;;;;;;34.75;28.75;;;;;4.44;100.00;102391.47;5055131;28;45846;-81
2023/01/31 02:46:53;;;;;;;;;22.00;19.75;;;;;4.50;100.00;102417.25;5042824;28;45829;-80
2023/01/31 02:49:38;;;;;;;;;30.25;26.00;;;;;4.27;100.00;102364.81;5052372;28;45450;-79
2023/01/31 02:52:25;;;;;;;;;22.00;21.25;;;;;4.49;100.00;102397.38;5052899;28;45737;-80
2023/01/31 02:57:58;;;;;;;;;29.50;23.50;;;;;4.44;100.00;102390.59;5050720;28;45779;-80
2023/01/31 03:00:26;;;;;;;;;25.50;21.75;;;;;4.35;100.00;102373.22;5058023;28;45459;-80
2023/01/31 03:02:52;;;;;;;;;27.25;24.25;;;;;4.20;100.00;102356.34;5058976;28;45794;-81
2023/01/31 03:05:19;;;;;;;;;29.25;24.25;;;;;4.35;100.00;102376.78;5040295;28;48735;-80
2023/01/31 03:07:53;;;;;;;;;28.75;22.25;;;;;4.42;100.00;102398.88;5057267;28;45469;-80
2023/01/31 03:10:37;;;;;;;;;26.50;22.00;;;;;4.49;100.00;102401.94;5056408;28;45530;-80
2023/01/31 03:13:34;;;;;;;;;24.00;21.00;;;;;4.50;100.00;102390.94;5047164;28;46928;-81
2023/01/31 03:19:14;;;;;;;;;26.50;23.75;;;;;4.52;100.00;102412.56;5069267;28;45344;-79
2023/01/31 03:21:57;;;;;;;;;34.50;26.00;;;;;4.32;100.00;102387.06;5054472;28;45406;-79
2023/01/31 03:24:25;;;;;;;;;34.00;23.25;;;;;4.45;100.00;102414.06;5053140;28;45648;-80
2023/01/31 03:26:52;;;;;;;;;27.00;20.00;;;;;4.42;100.00;102409.75;5035569;28;46416;-78
2023/01/31 03:29:19;;;;;;;;;29.75;24.75;;;;;4.30;100.00;102395.34;5056317;28;45665;-79
2023/01/31 03:32:04;;;;;;;;;34.25;25.25;;;;;4.36;100.00;102402.97;5039425;28;45474;-77
2023/01/31 03:34:31;;;;;;;;;29.25;25.00;;;;;4.37;100.00;102398.38;5052734;28;45670;-78
2023/01/31 03:37:18;;;;;;;;;25.67;21.33;;;;;4.39;100.00;102404.56;5053548;28;45435;-80
2023/01/31 03:40:11;;;;;;;;;19.75;19.75;;;;;4.42;100.00;102412.47;5053423;28;45661;-80
2023/01/31 03:43:05;;;;;;;;;32.00;27.00;;;;;4.44;100.00;102417.78;5048745;28;45691;-79
2023/01/31 03:45:56;;;;;;;;;17.00;17.00;;;;;4.45;100.00;102405.94;5053939;28;45813;-80
2023/01/31 03:48:28;;;;;;;;;21.33;16.33;;;;;4.37;100.00;102391.13;5049304;28;46074;-78
2023/01/31 03:51:00;;;;;;;;;23.00;18.50;;;;;4.43;100.00;102406.03;5053044;28;45785;-79
2023/01/31 03:53:35;;;;;;;;;22.50;19.75;;;;;4.44;100.00;102402.31;5053098;28;45436;-81
2023/01/31 03:56:06;;;;;;;;;27.67;20.00;;;;;4.42;100.00;102401.59;5034004;28;46734;-79
2023/01/31 03:58:39;;;;;;;;;27.50;22.50;;;;;4.42;100.00;102402.47;5053563;28;45400;-80
2023/01/31 04:01:08;;;;;;;;;24.75;21.25;;;;;4.28;100.00;102386.47;5053078;28;45762;-81
2023/01/31 04:03:46;;;;;;;;;23.75;20.75;;;;;4.42;100.00;102410.59;5053353;28;45843;-80
2023/01/31 04:06:12;;;;;;;;;26.33;19.67;;;;;4.40;100.00;102409.88;5052776;28;45340;-80
2023/01/31 04:08:38;;;;;;;;;24.00;23.00;;;;;4.32;100.00;102398.78;5052510;28;46241;-81
2023/01/31 04:11:09;;;;;;;;;23.33;18.67;;;;;4.27;100.00;102395.59;5048035;28;46552;-80
2023/01/31 04:13:34;;;;;;;;;26.67;23.00;;;;;4.28;100.00;102397.31;5053681;28;45874;-81
2023/01/31 04:16:00;;;;;;;;;23.50;20.50;;;;;4.28;100.00;102391.91;5035505;28;47395;-80
2023/01/31 04:18:26;;;;;;;;;21.75;19.75;;;;;4.32;100.00;102404.22;5054029;28;46138;-78
2023/01/31 04:20:51;;;;;;;;;4.00;2.67;;;;;4.34;100.00;102402.25;5059827;28;45470;-79
2023/01/31 04:23:17;;;;;;;;;30.75;21.75;;;;;4.29;100.00;102393.59;5069470;28;45607;-79
2023/01/31 04:25:43;;;;;;;;;22.75;21.75;;;;;4.38;100.00;102400.97;5035413;28;45364;-80
2023/01/31 04:28:09;;;;;;;;;17.33;16.00;;;;;4.41;100.00;102408.00;5051922;28;45550;-79
2023/01/31 04:30:35;;;;;;;;;21.67;20.00;;;;;4.31;100.00;102388.03;5052757;28;46074;-80
2023/01/31 04:33:01;;;;;;;;;18.75;15.00;;;;;4.29;100.00;102371.88;5052655;28;45844;-79
2023/01/31 04:35:26;;;;;;;;;28.00;19.50;;;;;4.39;100.00;102377.41;5055554;28;45591;-80
2023/01/31 04:37:52;;;;;;;;;24.50;18.75;;;;;4.44;100.00;102385.19;5056162;28;45770;-79
2023/01/31 04:40:27;;;;;;;;;27.50;22.00;;;;;4.54;100.00;102405.16;5049721;28;45372;-79
2023/01/31 04:42:52;;;;;;;;;26.00;21.75;;;;;4.53;100.00;102414.28;5062705;28;45516;-77
2023/01/31 04:45:18;;;;;;;;;29.00;22.50;;;;;4.34;100.00;102380.50;5064142;28;45708;-78
2023/01/31 04:47:43;;;;;;;;;35.25;24.25;;;;;4.35;100.00;102374.06;5046300;28;48239;-79
2023/01/31 04:50:10;;;;;;;;;24.00;20.00;;;;;4.52;100.00;102398.97;5060929;28;45970;-78
2023/01/31 04:52:35;;;;;;;;;23.00;19.75;;;;;4.52;100.00;102415.28;5057729;28;45743;-80
2023/01/31 04:55:01;;;;;;;;;23.50;21.50;;;;;4.28;100.00;102372.88;5057437;28;45337;-78
2023/01/31 04:57:26;;;;;;;;;22.25;18.75;;;;;4.22;100.00;102357.94;5050350;28;45720;-80
2023/01/31 04:59:52;;;;;;;;;18.25;18.25;;;;;4.37;100.00;102390.25;5050788;28;45785;-79
2023/01/31 05:02:17;;;;;;;;;25.67;23.00;;;;;4.45;100.00;102393.19;5032573;28;45352;-79
2023/01/31 05:04:43;;;;;;;;;16.33;16.00;;;;;4.30;100.00;102365.47;5051285;28;45317;-79
2023/01/31 05:07:09;;;;;;;;;22.50;17.50;;;;;4.47;100.00;102384.91;5029768;28;47826;-80
2023/01/31 05:09:34;;;;;;;;;23.00;19.00;;;;;4.38;100.00;102372.97;5028153;28;45814;-79
2023/01/31 05:12:03;;;;;;;;;19.67;16.33;;;;;4.38;100.00;102371.09;5055402;28;45753;-79
2023/01/31 05:14:31;;;;;;;;;23.00;19.67;;;;;4.40;100.00;102373.69;5054964;28;45960;-79
2023/01/31 05:16:56;;;;;;;;;18.33;16.33;;;;;4.53;100.00;102389.84;5049409;28;46207;-81
2023/01/31 05:19:22;;;;;;;;;19.33;16.00;;;;;4.35;100.00;102365.91;5054601;28;45821;-79
2023/01/31 05:21:53;;;;;;;;;20.25;16.75;;;;;4.53;100.00;102384.41;5050959;28;45659;-79
2023/01/31 05:24:22;;;;;;;;;16.33;15.00;;;;;4.48;100.00;102373.91;5051433;28;45846;-82
2023/01/31 05:26:50;;;;;;;;;17.00;15.33;;;;;4.36;100.00;102351.34;5050977;28;46839;-79
2023/01/31 05:29:16;;;;;;;;;25.00;21.00;;;;;4.65;100.00;102390.66;5049615;28;45684;-81
2023/01/31 05:31:41;;;;;;;;;19.67;15.33;;;;;4.38;100.00;102343.94;5060464;28;45431;-83
2023/01/31 05:34:09;;;;;;;;;20.00;16.67;;;;;4.54;100.00;102367.13;5036633;28;46991;-81
2023/01/31 05:36:37;;;;;;;;;15.67;13.00;;;;;4.74;100.00;102398.88;5055387;28;45957;-82
2023/01/31 05:39:03;;;;;;;;;15.00;15.00;;;;;4.71;100.00;102387.41;5036420;28;45630;-80
2023/01/31 05:41:28;;;;;;;;;14.00;12.00;;;;;4.90;100.00;102394.88;5031887;28;45786;-81
2023/01/31 05:43:54;;;;;;;;;16.00;14.00;;;;;4.88;100.00;102383.25;5059925;28;45711;-83
2023/01/31 05:46:50;;;;;;;;;16.67;12.67;;;;;4.83;100.00;102356.47;5053345;28;45798;-85
2023/01/31 05:49:16;;;;;;;;;18.67;15.67;;;;;5.05;100.00;102377.25;5023255;28;45509;-80
2023/01/31 05:51:42;;;;;;;;;21.67;17.33;;;;;5.27;100.00;102395.28;5032564;28;45614;-81
2023/01/31 05:54:10;;;;;;;;;18.00;16.67;;;;;5.39;100.00;102401.53;5055385;28;45853;-81
2023/01/31 05:56:38;;;;;;;;;20.33;19.33;;;;;5.37;100.00;102386.31;5052516;28;45930;-83
2023/01/31 05:59:05;;;;;;;;;23.33;19.33;;;;;5.53;100.00;102377.69;5058527;28;45458;-82
2023/01/31 06:01:30;;;;;;;;;21.33;18.00;;;;;5.52;100.00;102371.38;5038422;28;45799;-78
2023/01/31 06:03:56;;;;;;;;;25.00;20.67;;;;;5.66;100.00;102375.59;5057155;28;46310;-81
2023/01/31 06:06:23;;;;;;;;;22.00;22.00;;;;;5.67;100.00;102380.03;5054073;28;47106;-80
2023/01/31 06:08:48;;;;;;;;;19.00;15.67;;;;;5.76;100.00;102386.53;5059372;28;45536;-81
2023/01/31 06:11:20;;;;;;;;;20.33;18.00;;;;;5.52;100.00;102340.59;5040976;28;45816;-83
2023/01/31 06:13:48;;;;;;;;;24.67;23.00;;;;;5.60;100.00;102354.38;5033404;28;46002;-80
2023/01/31 06:16:13;;;;;;;;;23.00;18.00;;;;;5.72;100.00;102375.06;5055276;28;45308;-79
2023/01/31 06:18:40;;;;;;;;;17.33;17.33;;;;;5.73;100.00;102376.75;5054471;28;45943;-83
2023/01/31 06:21:26;;;;;;;;;18.33;15.33;;;;;5.69;100.00;102367.16;5053645;28;45821;-83
2023/01/31 06:24:00;;;;;;;;;17.00;13.67;;;;;5.84;100.00;102401.19;5026629;28;46611;-84
2023/01/31 06:26:30;;;;;;;;;20.33;13.00;;;;;5.38;100.00;102331.78;5018260;28;47024;-84
2023/01/31 06:28:59;;;;;;;;;19.00;17.00;;;;;5.73;100.00;102386.78;5016644;28;45446;-83
2023/01/31 06:31:32;;;;;;;;;14.33;14.00;;;;;5.72;100.00;102379.63;5031043;28;45574;-84
2023/01/31 06:34:07;;;;;;;;;14.67;13.00;;;;;5.80;100.00;102379.81;5032903;28;45788;-82
2023/01/31 06:36:38;;;;;;;;;21.33;14.33;;;;;5.71;100.00;102372.47;5033907;28;47517;-83
2023/01/31 06:39:09;;;;;;;;;18.00;15.33;;;;;5.76;100.00;102373.78;5019943;28;45596;-83
2023/01/31 06:42:10;;;;;;;;;;;;;;;;;;;;;
2023/01/31 06:44:39;;;;;;;;;17.33;12.00;;;;;6.11;100.00;102420.69;5022926;28;45854;-86
2023/01/31 06:47:43;;;;;;;;;21.33;20.33;;;;;6.22;100.00;102426.00;5034948;28;45536;-89
2023/01/31 06:50:46;;;;;;;;;20.33;19.00;;;;;6.11;100.00;102388.84;5022481;28;45415;-89
2023/01/31 06:53:55;;;;;;;;;;;;;;;;;;;;;
2023/01/31 06:56:49;;;;;;;;;21.33;13.67;;;;;6.42;100.00;102417.88;5027098;28;74021;-84
2023/01/31 06:59:32;;;;;;;;;15.67;13.00;;;;;6.47;100.00;102418.34;5044642;28;45514;-83
2023/01/31 07:03:02;;;;;;;;;22.00;15.00;;;;;6.48;100.00;102423.66;5040085;28;45479;-86
2023/01/31 07:05:31;;;;;;;;;15.00;11.33;;;;;6.40;100.00;102406.25;4942039;28;45352;-85
2023/01/31 07:07:56;;;;;;;;;14.67;10.33;;;;;6.44;100.00;102405.84;5015241;28;45553;-79
2023/01/31 07:10:24;;;;;;;;;16.00;12.33;;;;;6.43;100.00;102406.84;5018531;28;47842;-80
2023/01/31 07:12:50;;;;;;;;;14.00;12.00;;;;;6.50;100.00;102429.81;5026211;28;45654;-81
2023/01/31 07:15:16;;;;;;;;;13.33;12.00;;;;;6.50;100.00;102421.63;5032448;28;45874;-81
2023/01/31 07:17:42;;;;;;;;;13.33;12.67;;;;;6.51;100.00;102422.47;5028650;28;45890;-81
2023/01/31 07:20:11;;;;;;;;;13.33;11.00;;;;;6.56;100.00;102403.84;5021895;28;46097;-81
2023/01/31 07:22:37;;;;;;;;;13.00;12.00;;;;;6.61;100.00;102411.59;5034741;28;45423;-81
2023/01/31 07:25:04;;;;;;;;;15.33;12.00;;;;;6.44;100.00;102375.88;5056642;28;45875;-80
2023/01/31 07:27:30;;;;;;;;;12.00;11.00;;;;;6.62;100.00;102407.88;5024958;28;47326;-80
2023/01/31 07:29:55;;;;;;;;;16.00;11.00;;;;;6.62;100.00;102418.78;5053868;28;45606;-82
2023/01/31 07:32:21;;;;;;;;;13.33;10.00;;;;;6.63;100.00;102415.03;5054029;28;45598;-80
2023/01/31 07:34:47;;;;;;;;;13.33;13.00;;;;;6.57;100.00;102401.97;5054686;28;45829;-80
2023/01/31 07:37:12;;;;;;;;;11.00;11.00;;;;;6.57;100.00;102415.59;5054023;28;45464;-80
2023/01/31 07:39:38;;;;;;;;;14.00;10.00;;;;;6.56;100.00;102398.41;5067019;28;46330;-81
2023/01/31 07:42:03;;;;;;;;;7.33;7.00;;;;;6.68;100.00;102416.34;5054246;28;45458;-81
2023/01/31 07:44:29;;;;;;;;;11.00;8.67;;;;;6.61;100.00;102401.53;5066094;28;45610;-81
2023/01/31 07:46:55;;;;;;;;;14.33;11.00;;;;;6.62;100.00;102403.28;5064004;28;45711;-82
2023/01/31 07:49:21;;;;;;;;;14.00;11.33;;;;;6.74;100.00;102434.00;5035673;28;48127;-82
2023/01/31 07:51:46;;;;;;;;;11.67;8.67;;;;;6.69;100.00;102409.00;5052207;28;46857;-79
2023/01/31 07:54:12;;;;;;;;;14.67;9.00;;;;;6.84;100.00;102431.28;5047350;28;45965;-80
2023/01/31 07:56:38;;;;;;;;;12.00;10.67;;;;;6.83;100.00;102427.69;5054409;28;45846;-81
2023/01/31 07:59:03;;;;;;;;;11.33;9.67;;;;;6.71;100.00;102394.25;5033421;28;46589;-80
2023/01/31 08:04:17;;;;;;;;;8.67;8.33;;;;;7.01;100.00;102429.72;5055470;28;45385;-79
2023/01/31 08:06:51;;;;;;;;;11.00;7.00;;;;;7.04;100.00;102416.63;5056263;28;45703;-80
2023/01/31 08:09:17;;;;;;;;;15.67;11.33;;;;;7.15;100.00;102431.97;5041352;28;45756;-83
2023/01/31 08:11:42;;;;;;;;;14.33;11.67;;;;;7.24;100.00;102436.59;5052026;28;45736;-83
2023/01/31 08:14:08;;;;;;;;;24.00;17.67;;;;;7.29;100.00;102427.97;5039451;28;45664;-81
2023/01/31 08:16:35;;;;;;;;;10.67;8.00;;;;;7.23;100.00;102417.63;5044638;28;46714;-82
2023/01/31 08:19:01;;;;;;;;;14.67;9.67;;;;;7.44;100.00;102439.31;5061379;28;46720;-81
2023/01/31 08:21:27;;;;;;;;;12.33;9.67;;;;;7.37;100.00;102397.22;5034536;28;45439;-79
2023/01/31 08:23:52;;;;;;;;;13.33;12.00;;;;;7.70;100.00;102435.94;5051974;28;45445;-79
2023/01/31 08:26:20;;;;;;;;;12.67;7.00;;;;;7.78;100.00;102444.22;5049979;28;46563;-82
2023/01/31 08:28:53;;;;;;;;;16.00;10.00;;;;;7.87;100.00;102435.13;5061488;28;46462;-84
2023/01/31 08:31:22;;;;;;;;;12.33;11.00;;;;;7.86;100.00;102438.00;5052568;28;46614;-79
2023/01/31 08:33:50;;;;;;;;;9.00;8.00;;;;;7.67;100.00;102389.81;5058179;28;45434;-80
2023/01/31 08:36:21;;;;;;;;;9.00;7.33;;;;;8.01;100.00;102438.38;5052726;28;45545;-80
2023/01/31 08:38:48;;;;;;;;;9.67;7.00;;;;;7.91;100.00;102416.59;5032722;28;45791;-79
2023/01/31 08:41:16;;;;;;;;;9.00;8.33;;;;;8.02;100.00;102429.19;5033792;28;45470;-81
2023/01/31 08:43:42;;;;;;;;;19.67;15.33;;;;;8.19;100.00;102442.06;5059193;28;45574;-79
2023/01/31 08:46:09;;;;;;;;;32.50;25.50;;;;;8.12;100.00;102430.88;5054552;28;45900;-82
2023/01/31 08:48:36;;;;;;;;;18.67;15.33;;;;;8.35;100.00;102459.69;5050556;28;46939;-80
2023/01/31 08:51:06;;;;;;;;;31.00;26.67;;;;;8.23;100.00;102421.63;5051146;28;45783;-79
2023/01/31 08:53:33;;;;;;;;;22.00;17.00;;;;;8.64;100.00;102449.47;5053245;28;45908;-79
2023/01/31 08:55:59;;;;;;;;;15.00;10.67;;;;;8.66;100.00;102420.06;5050118;28;46761;-79
2023/01/31 08:58:25;;;;;;;;;16.67;12.00;;;;;8.84;100.00;102449.31;5032310;28;48494;-81
2023/01/31 09:00:50;;;;;;;;;14.67;13.67;;;;;8.99;100.00;102446.91;5059626;28;46031;-81
2023/01/31 09:03:16;;;;;;;;;18.00;14.67;;;;;9.14;100.00;102444.47;5050330;28;45644;-80
2023/01/31 09:05:42;;;;;;;;;12.00;9.00;;;;;9.02;100.00;102413.75;5049694;28;45487;-80
2023/01/31 09:08:07;;;;;;;;;24.67;16.33;;;;;9.34;100.00;102443.28;5031300;28;48256;-81
2023/01/31 09:10:35;;;;;;;;;11.00;9.00;;;;;9.49;100.00;102448.16;5052187;28;45754;-80
2023/01/31 09:13:01;;;;;;;;;10.00;9.00;;;;;9.20;100.00;102378.13;5053241;28;45422;-80
2023/01/31 09:15:26;;;;;;;;;10.33;8.33;;;;;9.39;100.00;102403.63;5058862;28;45550;-81
2023/01/31 09:17:52;;;;;;;;;11.67;11.00;;;;;9.62;100.00;102450.50;5031972;28;47848;-81
2023/01/31 09:20:18;;;;;;;;;8.33;7.00;;;;;9.54;100.00;102443.94;5057896;28;46167;-81
2023/01/31 09:22:44;;;;;;;;;10.67;8.33;;;;;9.62;100.00;102456.81;5034060;28;45832;-80
2023/01/31 09:25:10;;;;;;;;;11.67;9.33;;;;;9.58;100.00;102457.31;5050185;28;45954;-80
2023/01/31 09:27:37;;;;;;;;;11.67;9.00;;;;;9.51;100.00;102449.75;5048180;28;45637;-79
2023/01/31 09:30:05;;;;;;;;;9.67;7.67;;;;;9.46;100.00;102443.91;5052696;28;45646;-83
2023/01/31 09:32:40;;;;;;;;;9.33;6.00;;;;;9.51;100.00;102457.09;5054787;28;45877;-81
2023/01/31 09:35:12;;;;;;;;;11.00;9.67;;;;;9.22;100.00;102417.19;5050991;28;45406;-81
2023/01/31 09:37:38;;;;;;;;;8.00;7.00;;;;;9.36;100.00;102433.03;5030760;28;46861;-81
2023/01/31 09:40:21;;;;;;;;;10.33;7.67;;;;;9.52;100.00;102469.75;5034853;28;45580;-83
2023/01/31 09:42:49;;;;;;;;;11.00;10.00;;;;;9.47;100.00;102463.91;5054190;28;45632;-80
2023/01/31 09:45:26;;;;;;;;;10.00;8.00;;;;;9.30;100.00;102446.50;5049743;28;45587;-80
2023/01/31 09:47:55;;;;;;;;;9.67;8.00;;;;;9.31;100.00;102445.47;5030976;28;46659;-79
2023/01/31 09:50:33;;;;;;;;;11.00;8.00;;;;;9.47;100.00;102469.38;5047952;28;45849;-80
2023/01/31 09:52:59;;;;;;;;;9.00;9.00;;;;;9.46;100.00;102456.72;5048460;28;45698;-81
2023/01/31 09:55:54;;;;;;;;;10.67;9.33;;;;;9.56;100.00;102471.16;5031235;28;46584;-81
2023/01/31 09:58:50;;;;;;;;;11.33;11.00;;;;;9.62;100.00;102478.75;5028800;28;47985;-80
2023/01/31 10:01:25;;;;;;;;;10.00;8.67;;;;;9.64;100.00;102478.59;5063268;28;45421;-81
2023/01/31 10:04:28;;;;;;;;;9.00;6.00;;;;;9.70;100.00;102470.59;5054357;28;45573;-81
2023/01/31 10:07:09;;;;;;;;;12.67;8.00;;;;;9.60;100.00;102444.34;5062232;28;45624;-81
2023/01/31 10:09:54;;;;;;;;;8.00;7.00;;;;;9.69;100.00;102454.31;5062051;28;45650;-81
2023/01/31 10:12:27;;;;;;;;;19.33;14.33;;;;;9.81;100.00;102463.13;5049289;28;46208;-80
2023/01/31 10:15:00;;;;;;;;;9.67;8.00;;;;;10.00;100.00;102476.63;5056000;28;45834;-80
2023/01/31 10:17:35;;;;;;;;;11.33;9.00;;;;;9.94;100.00;102455.34;5059457;28;45385;-80
2023/01/31 10:20:20;;;;;;;;;14.00;10.00;;;;;10.16;100.00;102480.47;5056065;28;46571;-81
2023/01/31 10:22:58;;;;;;;;;14.33;11.00;;;;;10.17;100.00;102457.50;5043452;28;45454;-80
2023/01/31 10:25:39;;;;;;;;;11.00;8.33;;;;;10.41;100.00;102462.28;5058540;28;45580;-80
2023/01/31 10:28:21;;;;;;;;;12.33;11.33;;;;;10.72;100.00;102451.56;5056633;28;46999;-83
2023/01/31 10:31:01;;;;;;;;;12.33;10.00;;;;;11.33;100.00;102472.41;5027703;28;45853;-80
2023/01/31 10:33:51;;;;;;;;;16.33;10.67;;;;;11.60;100.00;102462.94;5037018;28;46236;-81
2023/01/31 10:36:35;;;;;;;;;17.00;13.00;;;;;11.88;100.00;102465.31;5054497;28;45533;-83
2023/01/31 10:39:40;;;;;;;;;15.67;13.00;;;;;11.89;100.00;102437.63;5045063;28;46417;-82
2023/01/31 10:42:38;;;;;;;;;14.67;10.00;;;;;12.12;100.00;102470.75;4994557;28;45976;-80
2023/01/31 10:45:15;;;;;;;;;11.67;9.00;;;;;12.12;100.00;102462.50;5042868;28;45844;-81
2023/01/31 10:47:49;;;;;;;;;11.33;8.00;;;;;12.03;100.00;102436.06;5043617;28;45684;-81
2023/01/31 10:50:41;;;;;;;;;14.67;11.00;;;;;12.22;100.00;102459.56;5049231;28;45921;-81
2023/01/31 10:53:40;;;;;;;;;18.00;11.00;;;;;12.11;100.00;102466.31;5051771;28;46392;-81
2023/01/31 10:56:36;;;;;;;;;11.33;10.33;;;;;12.03;100.00;102465.47;5052144;28;45568;-78
2023/01/31 10:59:09;;;;;;;;;13.33;13.00;;;;;11.79;100.00;102426.81;5047648;28;45990;-79
2023/01/31 11:01:38;;;;;;;;;15.00;10.00;;;;;12.03;100.00;102449.81;5047563;28;45977;-81
2023/01/31 11:04:22;;;;;;;;;13.67;10.67;;;;;12.12;100.00;102446.00;5046444;28;45822;-80
2023/01/31 11:06:47;;;;;;;;;9.33;8.67;;;;;12.11;100.00;102421.44;5033844;28;45968;-80
2023/01/31 11:09:17;;;;;;;;;9.00;7.33;;;;;12.16;100.00;102432.78;5041362;28;45673;-80
2023/01/31 11:12:02;;;;;;;;;7.00;7.00;;;;;12.26;100.00;102430.69;5048693;28;45645;-80
2023/01/31 11:14:29;;;;;;;;;5.33;5.33;;;;;12.09;100.00;102410.63;5065423;28;45532;-79
2023/01/31 11:17:01;;;;;;;;;9.00;8.00;;;;;12.19;100.00;102413.16;5046076;28;45816;-81
2023/01/31 11:19:36;;;;;;;;;11.33;8.00;;;;;12.36;100.00;102428.56;5058167;28;45695;-81
2023/01/31 11:22:03;;;;;;;;;11.67;8.33;;;;;12.52;100.00;102427.59;5063446;28;45628;-81
2023/01/31 11:24:32;;;;;;;;;9.67;7.00;;;;;12.63;100.00;102425.50;5038835;28;45864;-80
2023/01/31 11:27:13;;;;;;;;;8.67;7.67;;;;;12.77;100.00;102421.09;5043001;28;45807;-78
2023/01/31 11:29:59;;;;;;;;;8.67;7.00;;;;;12.57;100.00;102371.16;5031510;28;45768;-80
2023/01/31 11:32:33;;;;;;;;;6.67;6.00;;;;;12.86;100.00;102409.00;5050530;28;45923;-80
2023/01/31 11:35:00;;;;;;;;;6.00;6.00;;;;;12.85;100.00;102413.63;5058385;28;46223;-80
2023/01/31 11:37:28;;;;;;;;;5.33;5.00;;;;;12.67;100.00;102372.63;5038885;28;45626;-81
2023/01/31 11:39:56;;;;;;;;;13.33;9.33;;;;;12.50;100.00;102366.41;5059047;28;45471;-80
2023/01/31 11:42:22;;;;;;;;;10.67;7.00;;;;;12.46;100.00;102361.44;5046394;28;45497;-82
2023/01/31 11:44:56;;;;;;;;;6.00;5.33;;;;;12.71;100.00;102384.16;5062633;28;45939;-81
2023/01/31 11:47:41;;;;;;;;;8.33;6.00;;;;;12.53;100.00;102352.28;5057974;28;45360;-81
2023/01/31 11:50:25;;;;;;;;;8.33;6.33;;;;;12.56;100.00;102358.44;5047528;28;45857;-81